sensor_id;sensor_type;location;lat;lon;timestamp;P1;durP1;ratioP1;P2;durP2;ratioP2
59458;SDS011;45269;43.568;22.244;2023-08-17T00:01:54;11.48;;;10.45;;
59458;SDS011;45269;43.568;22.244;2023-08-17T00:04:20;12.48;;;11.27;;
59458;SDS011;45269;43.568;22.244;2023-08-17T00:06:45;12.35;;;11.23;;
59458;SDS011;45269;43.568;22.244;2023-08-17T00:09:12;12.48;;;11.38;;
59458;SDS011;45269;43.568;22.244;2023-08-17T00:11:37;12.05;;;11.00;;
59458;SDS011;45269;43.568;22.244;2023-08-17T00:14:03;11.52;;;10.50;;
59458;SDS011;45269;43.568;22.244;2023-08-17T00:16:28;12.00;;;10.90;;
59458;SDS011;45269;43.568;22.244;2023-08-17T00:18:54;12.65;;;11.45;;
59458;SDS011;45269;43.568;22.244;2023-08-17T00:21:19;11.23;;;10.30;;
59458;SDS011;45269;43.568;22.244;2023-08-17T00:23:44;14.80;;;11.40;;
59458;SDS011;45269;43.568;22.244;2023-08-17T00:26:10;13.30;;;12.05;;
59458;SDS011;45269;43.568;22.244;2023-08-17T00:28:35;12.02;;;10.82;;
59458;SDS011;45269;43.568;22.244;2023-08-17T00:31:01;13.93;;;12.63;;
59458;SDS011;45269;43.568;22.244;2023-08-17T00:33:26;13.07;;;11.93;;
59458;SDS011;45269;43.568;22.244;2023-08-17T00:35:52;13.50;;;12.20;;
59458;SDS011;45269;43.568;22.244;2023-08-17T00:38:17;14.88;;;11.85;;
59458;SDS011;45269;43.568;22.244;2023-08-17T00:40:42;12.32;;;11.18;;
59458;SDS011;45269;43.568;22.244;2023-08-17T00:43:08;12.07;;;10.95;;
59458;SDS011;45269;43.568;22.244;2023-08-17T00:45:34;12.88;;;10.80;;
59458;SDS011;45269;43.568;22.244;2023-08-17T00:48:00;12.30;;;11.02;;
59458;SDS011;45269;43.568;22.244;2023-08-17T00:50:25;12.18;;;11.07;;
59458;SDS011;45269;43.568;22.244;2023-08-17T00:52:51;12.05;;;10.82;;
59458;SDS011;45269;43.568;22.244;2023-08-17T00:55:17;12.93;;;11.68;;
59458;SDS011;45269;43.568;22.244;2023-08-17T00:57:43;13.25;;;11.10;;
59458;SDS011;45269;43.568;22.244;2023-08-17T01:00:09;12.75;;;11.60;;
59458;SDS011;45269;43.568;22.244;2023-08-17T01:02:38;14.05;;;11.95;;
59458;SDS011;45269;43.568;22.244;2023-08-17T01:05:03;13.43;;;12.05;;
59458;SDS011;45269;43.568;22.244;2023-08-17T01:07:31;12.45;;;11.35;;
59458;SDS011;45269;43.568;22.244;2023-08-17T01:09:56;12.93;;;11.63;;
59458;SDS011;45269;43.568;22.244;2023-08-17T01:20:11;14.85;;;12.82;;
59458;SDS011;45269;43.568;22.244;2023-08-17T01:22:40;13.30;;;12.20;;
59458;SDS011;45269;43.568;22.244;2023-08-17T01:25:06;14.60;;;12.98;;
59458;SDS011;45269;43.568;22.244;2023-08-17T01:27:38;13.80;;;12.38;;
59458;SDS011;45269;43.568;22.244;2023-08-17T01:30:03;14.00;;;12.32;;
59458;SDS011;45269;43.568;22.244;2023-08-17T01:32:51;13.93;;;12.73;;
59458;SDS011;45269;43.568;22.244;2023-08-17T01:37:43;12.88;;;11.88;;
59458;SDS011;45269;43.568;22.244;2023-08-17T01:40:09;13.25;;;12.10;;
59458;SDS011;45269;43.568;22.244;2023-08-17T01:42:36;12.80;;;11.60;;
59458;SDS011;45269;43.568;22.244;2023-08-17T01:45:02;14.05;;;12.63;;
59458;SDS011;45269;43.568;22.244;2023-08-17T01:47:28;14.32;;;12.95;;
59458;SDS011;45269;43.568;22.244;2023-08-17T01:49:55;13.73;;;12.52;;
59458;SDS011;45269;43.568;22.244;2023-08-17T01:52:25;13.88;;;12.57;;
59458;SDS011;45269;43.568;22.244;2023-08-17T01:54:51;13.20;;;11.85;;
59458;SDS011;45269;43.568;22.244;2023-08-17T01:57:16;13.52;;;12.27;;
59458;SDS011;45269;43.568;22.244;2023-08-17T01:59:42;14.40;;;13.10;;
59458;SDS011;45269;43.568;22.244;2023-08-17T02:02:07;13.00;;;11.88;;
59458;SDS011;45269;43.568;22.244;2023-08-17T02:04:33;13.38;;;12.13;;
59458;SDS011;45269;43.568;22.244;2023-08-17T02:06:58;12.90;;;11.80;;
59458;SDS011;45269;43.568;22.244;2023-08-17T02:09:24;13.55;;;12.35;;
59458;SDS011;45269;43.568;22.244;2023-08-17T02:11:49;14.60;;;11.63;;
59458;SDS011;45269;43.568;22.244;2023-08-17T02:14:15;13.60;;;12.27;;
59458;SDS011;45269;43.568;22.244;2023-08-17T02:16:40;12.82;;;11.73;;
59458;SDS011;45269;43.568;22.244;2023-08-17T02:19:05;13.77;;;12.45;;
59458;SDS011;45269;43.568;22.244;2023-08-17T02:21:31;13.88;;;12.68;;
59458;SDS011;45269;43.568;22.244;2023-08-17T02:23:56;12.93;;;11.73;;
59458;SDS011;45269;43.568;22.244;2023-08-17T02:26:21;11.93;;;10.90;;
59458;SDS011;45269;43.568;22.244;2023-08-17T02:28:47;13.82;;;12.20;;
59458;SDS011;45269;43.568;22.244;2023-08-17T02:31:12;13.65;;;11.70;;
59458;SDS011;45269;43.568;22.244;2023-08-17T02:33:37;12.73;;;11.60;;
59458;SDS011;45269;43.568;22.244;2023-08-17T02:36:03;15.00;;;12.90;;
59458;SDS011;45269;43.568;22.244;2023-08-17T02:38:29;13.73;;;12.30;;
59458;SDS011;45269;43.568;22.244;2023-08-17T02:40:54;15.32;;;12.30;;
59458;SDS011;45269;43.568;22.244;2023-08-17T02:43:19;12.48;;;11.50;;
59458;SDS011;45269;43.568;22.244;2023-08-17T02:45:45;13.43;;;12.02;;
59458;SDS011;45269;43.568;22.244;2023-08-17T02:48:10;13.35;;;12.20;;
59458;SDS011;45269;43.568;22.244;2023-08-17T02:50:35;13.48;;;12.18;;
59458;SDS011;45269;43.568;22.244;2023-08-17T02:53:01;13.55;;;12.45;;
59458;SDS011;45269;43.568;22.244;2023-08-17T02:55:27;13.32;;;12.23;;
59458;SDS011;45269;43.568;22.244;2023-08-17T02:57:52;13.95;;;12.55;;
59458;SDS011;45269;43.568;22.244;2023-08-17T03:00:18;12.70;;;11.60;;
59458;SDS011;45269;43.568;22.244;2023-08-17T03:02:43;13.68;;;12.48;;
59458;SDS011;45269;43.568;22.244;2023-08-17T03:05:08;13.75;;;12.52;;
59458;SDS011;45269;43.568;22.244;2023-08-17T03:07:34;13.65;;;12.45;;
59458;SDS011;45269;43.568;22.244;2023-08-17T03:09:59;13.18;;;11.90;;
59458;SDS011;45269;43.568;22.244;2023-08-17T03:12:24;16.40;;;11.18;;
59458;SDS011;45269;43.568;22.244;2023-08-17T03:14:50;12.45;;;11.32;;
59458;SDS011;45269;43.568;22.244;2023-08-17T03:17:15;12.60;;;11.50;;
59458;SDS011;45269;43.568;22.244;2023-08-17T03:19:40;15.45;;;13.27;;
59458;SDS011;45269;43.568;22.244;2023-08-17T03:22:06;13.05;;;11.95;;
59458;SDS011;45269;43.568;22.244;2023-08-17T03:24:31;14.30;;;12.23;;
59458;SDS011;45269;43.568;22.244;2023-08-17T03:26:56;13.70;;;12.50;;
59458;SDS011;45269;43.568;22.244;2023-08-17T03:29:22;13.52;;;12.15;;
59458;SDS011;45269;43.568;22.244;2023-08-17T03:31:47;14.48;;;12.48;;
59458;SDS011;45269;43.568;22.244;2023-08-17T03:34:14;13.30;;;12.20;;
59458;SDS011;45269;43.568;22.244;2023-08-17T03:36:40;13.80;;;12.57;;
59458;SDS011;45269;43.568;22.244;2023-08-17T03:39:05;14.13;;;12.85;;
59458;SDS011;45269;43.568;22.244;2023-08-17T03:41:30;14.23;;;12.85;;
59458;SDS011;45269;43.568;22.244;2023-08-17T03:43:56;13.70;;;12.45;;
59458;SDS011;45269;43.568;22.244;2023-08-17T03:46:21;13.52;;;12.23;;
59458;SDS011;45269;43.568;22.244;2023-08-17T03:48:46;14.48;;;12.23;;
59458;SDS011;45269;43.568;22.244;2023-08-17T03:51:12;14.07;;;12.85;;
59458;SDS011;45269;43.568;22.244;2023-08-17T03:53:37;13.23;;;11.95;;
59458;SDS011;45269;43.568;22.244;2023-08-17T03:56:03;14.70;;;13.38;;
59458;SDS011;45269;43.568;22.244;2023-08-17T03:58:28;13.25;;;11.88;;
59458;SDS011;45269;43.568;22.244;2023-08-17T04:00:58;13.45;;;12.32;;
59458;SDS011;45269;43.568;22.244;2023-08-17T04:03:23;13.23;;;12.10;;
59458;SDS011;45269;43.568;22.244;2023-08-17T04:05:49;14.23;;;12.93;;
59458;SDS011;45269;43.568;22.244;2023-08-17T04:08:14;13.63;;;12.52;;
59458;SDS011;45269;43.568;22.244;2023-08-17T04:10:40;13.85;;;12.55;;
59458;SDS011;45269;43.568;22.244;2023-08-17T04:13:05;14.73;;;13.30;;
59458;SDS011;45269;43.568;22.244;2023-08-17T04:15:30;13.13;;;11.93;;
59458;SDS011;45269;43.568;22.244;2023-08-17T04:17:56;13.20;;;12.07;;
59458;SDS011;45269;43.568;22.244;2023-08-17T04:20:21;18.25;;;12.68;;
59458;SDS011;45269;43.568;22.244;2023-08-17T04:22:48;14.35;;;13.05;;
59458;SDS011;45269;43.568;22.244;2023-08-17T04:25:13;14.40;;;12.98;;
59458;SDS011;45269;43.568;22.244;2023-08-17T04:27:39;13.80;;;12.50;;
59458;SDS011;45269;43.568;22.244;2023-08-17T04:30:04;13.68;;;12.48;;
59458;SDS011;45269;43.568;22.244;2023-08-17T04:32:30;14.10;;;12.77;;
59458;SDS011;45269;43.568;22.244;2023-08-17T04:34:55;14.48;;;12.98;;
59458;SDS011;45269;43.568;22.244;2023-08-17T04:37:20;15.27;;;14.02;;
59458;SDS011;45269;43.568;22.244;2023-08-17T04:39:46;15.88;;;14.48;;
59458;SDS011;45269;43.568;22.244;2023-08-17T04:42:13;14.93;;;13.38;;
59458;SDS011;45269;43.568;22.244;2023-08-17T04:44:39;15.20;;;13.02;;
59458;SDS011;45269;43.568;22.244;2023-08-17T04:47:04;14.43;;;13.05;;
59458;SDS011;45269;43.568;22.244;2023-08-17T04:49:30;15.63;;;14.25;;
59458;SDS011;45269;43.568;22.244;2023-08-17T04:51:55;15.55;;;14.15;;
59458;SDS011;45269;43.568;22.244;2023-08-17T04:54:21;13.95;;;12.55;;
59458;SDS011;45269;43.568;22.244;2023-08-17T04:56:46;14.98;;;13.68;;
59458;SDS011;45269;43.568;22.244;2023-08-17T04:59:12;15.40;;;14.00;;
59458;SDS011;45269;43.568;22.244;2023-08-17T05:01:37;14.80;;;13.32;;
59458;SDS011;45269;43.568;22.244;2023-08-17T05:04:03;16.40;;;14.38;;
59458;SDS011;45269;43.568;22.244;2023-08-17T05:06:29;15.50;;;14.00;;
59458;SDS011;45269;43.568;22.244;2023-08-17T05:08:54;16.42;;;14.23;;
59458;SDS011;45269;43.568;22.244;2023-08-17T05:11:20;14.95;;;13.65;;
59458;SDS011;45269;43.568;22.244;2023-08-17T05:13:45;14.73;;;13.25;;
59458;SDS011;45269;43.568;22.244;2023-08-17T05:16:10;14.80;;;13.40;;
59458;SDS011;45269;43.568;22.244;2023-08-17T05:18:36;14.73;;;13.15;;
59458;SDS011;45269;43.568;22.244;2023-08-17T05:21:01;13.55;;;12.15;;
59458;SDS011;45269;43.568;22.244;2023-08-17T05:23:26;14.48;;;13.05;;
59458;SDS011;45269;43.568;22.244;2023-08-17T05:25:52;13.85;;;12.68;;
59458;SDS011;45269;43.568;22.244;2023-08-17T05:28:17;14.30;;;12.77;;
59458;SDS011;45269;43.568;22.244;2023-08-17T05:30:43;13.88;;;12.50;;
59458;SDS011;45269;43.568;22.244;2023-08-17T05:33:08;13.88;;;12.57;;
59458;SDS011;45269;43.568;22.244;2023-08-17T05:35:33;13.68;;;12.23;;
59458;SDS011;45269;43.568;22.244;2023-08-17T05:37:59;12.55;;;11.35;;
59458;SDS011;45269;43.568;22.244;2023-08-17T05:40:25;13.18;;;11.95;;
59458;SDS011;45269;43.568;22.244;2023-08-17T05:42:50;13.68;;;12.25;;
59458;SDS011;45269;43.568;22.244;2023-08-17T05:45:15;13.27;;;11.98;;
59458;SDS011;45269;43.568;22.244;2023-08-17T05:47:41;13.23;;;11.82;;
59458;SDS011;45269;43.568;22.244;2023-08-17T05:50:06;13.32;;;11.95;;
59458;SDS011;45269;43.568;22.244;2023-08-17T05:52:32;18.42;;;12.15;;
59458;SDS011;45269;43.568;22.244;2023-08-17T05:54:57;12.38;;;11.25;;
59458;SDS011;45269;43.568;22.244;2023-08-17T05:57:22;13.55;;;11.48;;
59458;SDS011;45269;43.568;22.244;2023-08-17T05:59:48;12.57;;;11.38;;
59458;SDS011;45269;43.568;22.244;2023-08-17T06:02:14;12.93;;;10.75;;
59458;SDS011;45269;43.568;22.244;2023-08-17T06:04:39;12.88;;;11.73;;
59458;SDS011;45269;43.568;22.244;2023-08-17T06:07:04;12.15;;;10.98;;
59458;SDS011;45269;43.568;22.244;2023-08-17T06:09:30;13.70;;;10.70;;
59458;SDS011;45269;43.568;22.244;2023-08-17T06:11:56;11.93;;;10.73;;
59458;SDS011;45269;43.568;22.244;2023-08-17T06:14:21;11.30;;;10.02;;
59458;SDS011;45269;43.568;22.244;2023-08-17T06:16:47;11.20;;;10.10;;
59458;SDS011;45269;43.568;22.244;2023-08-17T06:19:12;10.68;;;9.68;;
59458;SDS011;45269;43.568;22.244;2023-08-17T06:21:38;10.88;;;9.95;;
59458;SDS011;45269;43.568;22.244;2023-08-17T06:24:03;10.43;;;9.52;;
59458;SDS011;45269;43.568;22.244;2023-08-17T06:26:29;10.18;;;9.18;;
59458;SDS011;45269;43.568;22.244;2023-08-17T06:28:54;12.52;;;10.18;;
59458;SDS011;45269;43.568;22.244;2023-08-17T06:31:20;11.48;;;8.93;;
59458;SDS011;45269;43.568;22.244;2023-08-17T06:33:45;12.88;;;10.25;;
59458;SDS011;45269;43.568;22.244;2023-08-17T06:36:10;11.77;;;9.60;;
59458;SDS011;45269;43.568;22.244;2023-08-17T06:38:38;9.50;;;8.50;;
59458;SDS011;45269;43.568;22.244;2023-08-17T06:41:03;9.73;;;8.77;;
59458;SDS011;45269;43.568;22.244;2023-08-17T06:43:29;9.65;;;8.32;;
59458;SDS011;45269;43.568;22.244;2023-08-17T06:45:54;9.48;;;8.57;;
59458;SDS011;45269;43.568;22.244;2023-08-17T06:48:21;9.93;;;8.48;;
59458;SDS011;45269;43.568;22.244;2023-08-17T06:50:46;15.50;;;9.07;;
59458;SDS011;45269;43.568;22.244;2023-08-17T06:53:11;10.73;;;8.35;;
59458;SDS011;45269;43.568;22.244;2023-08-17T06:55:37;9.25;;;8.10;;
59458;SDS011;45269;43.568;22.244;2023-08-17T06:58:02;9.10;;;8.20;;
59458;SDS011;45269;43.568;22.244;2023-08-17T07:00:28;11.43;;;7.60;;
59458;SDS011;45269;43.568;22.244;2023-08-17T07:02:53;8.80;;;8.00;;
59458;SDS011;45269;43.568;22.244;2023-08-17T07:05:18;9.65;;;7.90;;
59458;SDS011;45269;43.568;22.244;2023-08-17T07:07:44;9.50;;;7.80;;
59458;SDS011;45269;43.568;22.244;2023-08-17T07:10:09;12.48;;;8.30;;
59458;SDS011;45269;43.568;22.244;2023-08-17T07:12:38;8.85;;;8.00;;
59458;SDS011;45269;43.568;22.244;2023-08-17T07:15:04;11.77;;;8.45;;
59458;SDS011;45269;43.568;22.244;2023-08-17T07:17:30;9.75;;;8.75;;
59458;SDS011;45269;43.568;22.244;2023-08-17T07:19:55;9.90;;;8.25;;
59458;SDS011;45269;43.568;22.244;2023-08-17T07:22:20;14.82;;;9.05;;
59458;SDS011;45269;43.568;22.244;2023-08-17T07:24:46;9.98;;;8.50;;
59458;SDS011;45269;43.568;22.244;2023-08-17T07:27:11;12.18;;;8.90;;
59458;SDS011;45269;43.568;22.244;2023-08-17T07:29:36;10.27;;;8.98;;
59458;SDS011;45269;43.568;22.244;2023-08-17T07:32:02;10.13;;;9.13;;
59458;SDS011;45269;43.568;22.244;2023-08-17T07:34:30;9.65;;;8.75;;
59458;SDS011;45269;43.568;22.244;2023-08-17T07:36:56;10.80;;;9.80;;
59458;SDS011;45269;43.568;22.244;2023-08-17T07:39:22;12.48;;;9.00;;
59458;SDS011;45269;43.568;22.244;2023-08-17T07:41:47;10.18;;;9.35;;
59458;SDS011;45269;43.568;22.244;2023-08-17T07:44:12;11.40;;;8.85;;
59458;SDS011;45269;43.568;22.244;2023-08-17T07:46:38;10.43;;;9.52;;
59458;SDS011;45269;43.568;22.244;2023-08-17T07:49:03;11.30;;;10.13;;
59458;SDS011;45269;43.568;22.244;2023-08-17T07:51:28;10.85;;;9.95;;
59458;SDS011;45269;43.568;22.244;2023-08-17T07:53:56;11.75;;;10.38;;
59458;SDS011;45269;43.568;22.244;2023-08-17T07:56:21;12.95;;;11.10;;
59458;SDS011;45269;43.568;22.244;2023-08-17T07:58:47;13.68;;;10.70;;
59458;SDS011;45269;43.568;22.244;2023-08-17T08:01:12;12.65;;;11.32;;
59458;SDS011;45269;43.568;22.244;2023-08-17T08:03:38;12.15;;;10.90;;
59458;SDS011;45269;43.568;22.244;2023-08-17T08:06:03;11.75;;;10.65;;
59458;SDS011;45269;43.568;22.244;2023-08-17T08:08:28;11.80;;;10.63;;
59458;SDS011;45269;43.568;22.244;2023-08-17T08:10:53;10.40;;;9.50;;
59458;SDS011;45269;43.568;22.244;2023-08-17T08:13:19;10.82;;;9.82;;
59458;SDS011;45269;43.568;22.244;2023-08-17T08:15:45;12.75;;;9.70;;
59458;SDS011;45269;43.568;22.244;2023-08-17T08:18:10;10.95;;;9.30;;
59458;SDS011;45269;43.568;22.244;2023-08-17T08:20:35;11.40;;;9.57;;
59458;SDS011;45269;43.568;22.244;2023-08-17T08:23:01;8.73;;;7.80;;
59458;SDS011;45269;43.568;22.244;2023-08-17T08:25:27;8.95;;;7.70;;
59458;SDS011;45269;43.568;22.244;2023-08-17T08:27:52;9.15;;;8.23;;
59458;SDS011;45269;43.568;22.244;2023-08-17T08:30:18;12.50;;;8.32;;
59458;SDS011;45269;43.568;22.244;2023-08-17T08:32:43;11.55;;;7.72;;
59458;SDS011;45269;43.568;22.244;2023-08-17T08:35:08;7.85;;;7.00;;
59458;SDS011;45269;43.568;22.244;2023-08-17T08:37:34;10.05;;;7.03;;
59458;SDS011;45269;43.568;22.244;2023-08-17T08:39:59;8.65;;;7.13;;
59458;SDS011;45269;43.568;22.244;2023-08-17T08:42:25;9.23;;;7.40;;
59458;SDS011;45269;43.568;22.244;2023-08-17T08:44:51;7.55;;;6.85;;
59458;SDS011;45269;43.568;22.244;2023-08-17T08:47:17;10.00;;;7.07;;
59458;SDS011;45269;43.568;22.244;2023-08-17T08:49:50;8.88;;;7.38;;
59458;SDS011;45269;43.568;22.244;2023-08-17T08:52:19;10.77;;;7.53;;
59458;SDS011;45269;43.568;22.244;2023-08-17T08:54:49;8.90;;;6.90;;
59458;SDS011;45269;43.568;22.244;2023-08-17T08:57:14;9.13;;;7.55;;
59458;SDS011;45269;43.568;22.244;2023-08-17T08:59:41;9.27;;;7.13;;
59458;SDS011;45269;43.568;22.244;2023-08-17T09:02:12;8.45;;;6.93;;
59458;SDS011;45269;43.568;22.244;2023-08-17T09:07:03;8.40;;;7.50;;
59458;SDS011;45269;43.568;22.244;2023-08-17T09:09:28;8.00;;;7.07;;
59458;SDS011;45269;43.568;22.244;2023-08-17T09:11:54;9.07;;;6.75;;
59458;SDS011;45269;43.568;22.244;2023-08-17T09:14:19;11.98;;;7.13;;
59458;SDS011;45269;43.568;22.244;2023-08-17T09:16:45;9.68;;;7.38;;
59458;SDS011;45269;43.568;22.244;2023-08-17T09:19:10;7.15;;;6.55;;
59458;SDS011;45269;43.568;22.244;2023-08-17T09:21:35;9.73;;;6.68;;
59458;SDS011;45269;43.568;22.244;2023-08-17T09:24:01;15.43;;;7.25;;
59458;SDS011;45269;43.568;22.244;2023-08-17T09:26:29;7.60;;;6.75;;
59458;SDS011;45269;43.568;22.244;2023-08-17T09:28:55;8.23;;;7.43;;
59458;SDS011;45269;43.568;22.244;2023-08-17T09:31:22;10.05;;;7.00;;
59458;SDS011;45269;43.568;22.244;2023-08-17T09:33:49;7.88;;;6.80;;
59458;SDS011;45269;43.568;22.244;2023-08-17T09:36:14;7.45;;;6.70;;
59458;SDS011;45269;43.568;22.244;2023-08-17T09:38:40;7.18;;;6.40;;
59458;SDS011;45269;43.568;22.244;2023-08-17T09:41:06;9.15;;;6.43;;
59458;SDS011;45269;43.568;22.244;2023-08-17T09:43:31;7.88;;;6.28;;
59458;SDS011;45269;43.568;22.244;2023-08-17T09:45:58;7.43;;;6.47;;
59458;SDS011;45269;43.568;22.244;2023-08-17T09:48:24;6.72;;;6.13;;
59458;SDS011;45269;43.568;22.244;2023-08-17T09:50:49;7.63;;;6.65;;
59458;SDS011;45269;43.568;22.244;2023-08-17T09:53:16;6.68;;;6.00;;
59458;SDS011;45269;43.568;22.244;2023-08-17T09:55:42;6.22;;;5.63;;
59458;SDS011;45269;43.568;22.244;2023-08-17T09:58:08;7.38;;;6.07;;
59458;SDS011;45269;43.568;22.244;2023-08-17T10:00:33;6.43;;;5.88;;
59458;SDS011;45269;43.568;22.244;2023-08-17T10:03:00;8.93;;;6.15;;
59458;SDS011;45269;43.568;22.244;2023-08-17T10:05:26;6.38;;;5.65;;
59458;SDS011;45269;43.568;22.244;2023-08-17T10:07:54;8.00;;;5.95;;
59458;SDS011;45269;43.568;22.244;2023-08-17T10:10:22;10.90;;;5.33;;
59458;SDS011;45269;43.568;22.244;2023-08-17T10:12:52;6.47;;;5.20;;
59458;SDS011;45269;43.568;22.244;2023-08-17T10:15:19;6.35;;;5.10;;
59458;SDS011;45269;43.568;22.244;2023-08-17T10:18:07;6.10;;;5.40;;
59458;SDS011;45269;43.568;22.244;2023-08-17T10:20:34;6.40;;;5.43;;
59458;SDS011;45269;43.568;22.244;2023-08-17T10:23:08;5.20;;;4.70;;
59458;SDS011;45269;43.568;22.244;2023-08-17T10:25:35;9.23;;;5.07;;
59458;SDS011;45269;43.568;22.244;2023-08-17T10:28:03;6.25;;;5.25;;
59458;SDS011;45269;43.568;22.244;2023-08-17T10:30:28;7.63;;;4.82;;
59458;SDS011;45269;43.568;22.244;2023-08-17T10:32:54;6.10;;;5.25;;
59458;SDS011;45269;43.568;22.244;2023-08-17T10:35:19;9.80;;;5.45;;
59458;SDS011;45269;43.568;22.244;2023-08-17T10:37:45;6.30;;;5.07;;
59458;SDS011;45269;43.568;22.244;2023-08-17T10:40:11;7.65;;;4.82;;
59458;SDS011;45269;43.568;22.244;2023-08-17T10:42:36;6.82;;;5.10;;
59458;SDS011;45269;43.568;22.244;2023-08-17T10:45:24;7.13;;;5.10;;
59458;SDS011;45269;43.568;22.244;2023-08-17T10:47:48;5.00;;;4.35;;
59458;SDS011;45269;43.568;22.244;2023-08-17T10:50:20;5.25;;;4.10;;
59458;SDS011;45269;43.568;22.244;2023-08-17T10:52:47;4.40;;;4.00;;
59458;SDS011;45269;43.568;22.244;2023-08-17T10:55:13;5.75;;;4.30;;
59458;SDS011;45269;43.568;22.244;2023-08-17T11:00:07;6.13;;;3.92;;
59458;SDS011;45269;43.568;22.244;2023-08-17T11:02:33;4.88;;;4.00;;
59458;SDS011;45269;43.568;22.244;2023-08-17T11:04:58;5.32;;;3.35;;
59458;SDS011;45269;43.568;22.244;2023-08-17T11:07:24;4.15;;;3.70;;
59458;SDS011;45269;43.568;22.244;2023-08-17T11:09:53;4.30;;;3.42;;
59458;SDS011;45269;43.568;22.244;2023-08-17T11:12:25;4.32;;;3.63;;
59458;SDS011;45269;43.568;22.244;2023-08-17T11:14:50;4.47;;;3.42;;
59458;SDS011;45269;43.568;22.244;2023-08-17T11:17:15;8.10;;;4.00;;
59458;SDS011;45269;43.568;22.244;2023-08-17T11:19:41;6.32;;;3.88;;
59458;SDS011;45269;43.568;22.244;2023-08-17T11:22:06;4.28;;;3.65;;
59458;SDS011;45269;43.568;22.244;2023-08-17T11:24:32;6.70;;;3.75;;
59458;SDS011;45269;43.568;22.244;2023-08-17T11:26:58;4.15;;;3.65;;
59458;SDS011;45269;43.568;22.244;2023-08-17T11:29:23;4.53;;;3.53;;
59458;SDS011;45269;43.568;22.244;2023-08-17T11:31:50;4.45;;;4.00;;
59458;SDS011;45269;43.568;22.244;2023-08-17T11:34:15;9.30;;;3.50;;
59458;SDS011;45269;43.568;22.244;2023-08-17T11:36:41;4.55;;;3.50;;
59458;SDS011;45269;43.568;22.244;2023-08-17T11:39:06;4.82;;;3.65;;
59458;SDS011;45269;43.568;22.244;2023-08-17T11:41:32;7.72;;;3.95;;
59458;SDS011;45269;43.568;22.244;2023-08-17T11:43:57;3.92;;;3.53;;
59458;SDS011;45269;43.568;22.244;2023-08-17T11:46:24;5.55;;;3.55;;
59458;SDS011;45269;43.568;22.244;2023-08-17T11:48:50;3.85;;;3.40;;
59458;SDS011;45269;43.568;22.244;2023-08-17T11:51:27;4.47;;;3.70;;
59458;SDS011;45269;43.568;22.244;2023-08-17T11:53:53;4.18;;;3.75;;
59458;SDS011;45269;43.568;22.244;2023-08-17T11:56:18;5.90;;;3.88;;
59458;SDS011;45269;43.568;22.244;2023-08-17T11:58:45;4.25;;;3.85;;
59458;SDS011;45269;43.568;22.244;2023-08-17T12:01:11;6.88;;;3.80;;
59458;SDS011;45269;43.568;22.244;2023-08-17T12:03:36;6.97;;;3.58;;
59458;SDS011;45269;43.568;22.244;2023-08-17T12:06:02;4.20;;;3.70;;
59458;SDS011;45269;43.568;22.244;2023-08-17T12:08:27;7.45;;;3.85;;
59458;SDS011;45269;43.568;22.244;2023-08-17T12:10:52;4.35;;;3.80;;
59458;SDS011;45269;43.568;22.244;2023-08-17T12:13:18;6.05;;;4.13;;
59458;SDS011;45269;43.568;22.244;2023-08-17T12:15:43;4.43;;;4.00;;
59458;SDS011;45269;43.568;22.244;2023-08-17T12:18:09;5.60;;;4.13;;
59458;SDS011;45269;43.568;22.244;2023-08-17T12:20:34;4.03;;;3.63;;
59458;SDS011;45269;43.568;22.244;2023-08-17T12:23:03;5.47;;;3.78;;
59458;SDS011;45269;43.568;22.244;2023-08-17T12:25:28;3.60;;;3.30;;
59458;SDS011;45269;43.568;22.244;2023-08-17T12:27:57;9.45;;;3.75;;
59458;SDS011;45269;43.568;22.244;2023-08-17T12:32:51;5.95;;;3.63;;
59458;SDS011;45269;43.568;22.244;2023-08-17T12:35:16;5.38;;;4.20;;
59458;SDS011;45269;43.568;22.244;2023-08-17T12:37:41;7.32;;;4.22;;
59458;SDS011;45269;43.568;22.244;2023-08-17T12:40:07;5.25;;;4.10;;
59458;SDS011;45269;43.568;22.244;2023-08-17T12:42:33;5.57;;;4.30;;
59458;SDS011;45269;43.568;22.244;2023-08-17T12:44:58;3.95;;;3.63;;
59458;SDS011;45269;43.568;22.244;2023-08-17T12:47:23;7.00;;;4.13;;
59458;SDS011;45269;43.568;22.244;2023-08-17T12:49:49;5.05;;;3.85;;
59458;SDS011;45269;43.568;22.244;2023-08-17T12:52:14;3.92;;;3.45;;
59458;SDS011;45269;43.568;22.244;2023-08-17T12:54:40;5.13;;;3.67;;
59458;SDS011;45269;43.568;22.244;2023-08-17T12:57:05;7.03;;;3.92;;
59458;SDS011;45269;43.568;22.244;2023-08-17T12:59:30;7.85;;;4.15;;
59458;SDS011;45269;43.568;22.244;2023-08-17T13:01:56;5.60;;;3.78;;
59458;SDS011;45269;43.568;22.244;2023-08-17T13:04:21;4.03;;;3.72;;
59458;SDS011;45269;43.568;22.244;2023-08-17T13:06:46;6.80;;;4.40;;
59458;SDS011;45269;43.568;22.244;2023-08-17T13:09:13;5.40;;;4.28;;
59458;SDS011;45269;43.568;22.244;2023-08-17T13:11:39;5.63;;;4.18;;
59458;SDS011;45269;43.568;22.244;2023-08-17T13:14:05;5.18;;;4.07;;
59458;SDS011;45269;43.568;22.244;2023-08-17T13:16:30;6.22;;;3.92;;
59458;SDS011;45269;43.568;22.244;2023-08-17T13:18:55;5.65;;;4.07;;
59458;SDS011;45269;43.568;22.244;2023-08-17T13:21:21;5.32;;;3.85;;
59458;SDS011;45269;43.568;22.244;2023-08-17T13:23:46;6.53;;;3.95;;
59458;SDS011;45269;43.568;22.244;2023-08-17T13:26:11;5.55;;;3.80;;
59458;SDS011;45269;43.568;22.244;2023-08-17T13:28:37;5.80;;;4.47;;
59458;SDS011;45269;43.568;22.244;2023-08-17T13:31:03;6.30;;;4.10;;
59458;SDS011;45269;43.568;22.244;2023-08-17T13:33:28;6.28;;;4.38;;
59458;SDS011;45269;43.568;22.244;2023-08-17T13:35:53;8.82;;;4.22;;
59458;SDS011;45269;43.568;22.244;2023-08-17T13:38:19;4.05;;;3.72;;
59458;SDS011;45269;43.568;22.244;2023-08-17T13:40:44;7.32;;;4.20;;
59458;SDS011;45269;43.568;22.244;2023-08-17T13:43:10;6.38;;;4.35;;
59458;SDS011;45269;43.568;22.244;2023-08-17T13:45:39;4.57;;;4.18;;
59458;SDS011;45269;43.568;22.244;2023-08-17T13:48:05;4.72;;;4.30;;
59458;SDS011;45269;43.568;22.244;2023-08-17T13:50:30;7.50;;;4.32;;
59458;SDS011;45269;43.568;22.244;2023-08-17T13:52:56;7.35;;;4.00;;
59458;SDS011;45269;43.568;22.244;2023-08-17T13:55:25;5.60;;;4.05;;
59458;SDS011;45269;43.568;22.244;2023-08-17T13:57:50;6.53;;;4.22;;
59458;SDS011;45269;43.568;22.244;2023-08-17T14:00:17;5.75;;;4.80;;
59458;SDS011;45269;43.568;22.244;2023-08-17T14:02:43;6.95;;;4.97;;
59458;SDS011;45269;43.568;22.244;2023-08-17T14:05:08;5.28;;;4.18;;
59458;SDS011;45269;43.568;22.244;2023-08-17T14:07:34;7.47;;;4.63;;
59458;SDS011;45269;43.568;22.244;2023-08-17T14:09:59;9.70;;;4.70;;
59458;SDS011;45269;43.568;22.244;2023-08-17T14:12:24;5.60;;;4.68;;
59458;SDS011;45269;43.568;22.244;2023-08-17T14:14:50;5.03;;;4.40;;
59458;SDS011;45269;43.568;22.244;2023-08-17T14:17:15;5.30;;;4.10;;
59458;SDS011;45269;43.568;22.244;2023-08-17T14:19:40;6.68;;;4.00;;
59458;SDS011;45269;43.568;22.244;2023-08-17T14:22:07;5.13;;;4.50;;
59458;SDS011;45269;43.568;22.244;2023-08-17T14:24:34;4.93;;;4.45;;
59458;SDS011;45269;43.568;22.244;2023-08-17T14:26:59;5.35;;;4.53;;
59458;SDS011;45269;43.568;22.244;2023-08-17T14:29:25;5.80;;;4.05;;
59458;SDS011;45269;43.568;22.244;2023-08-17T14:31:50;10.07;;;4.30;;